createdAt,value
2022-11-10T00:01:45.435Z,8.40
2022-11-10T00:04:48.883Z,8.30
2022-11-10T00:07:53.406Z,8.40
2022-11-10T00:10:59.158Z,8.40
2022-11-10T00:14:34.313Z,8.40
2022-11-10T00:17:38.005Z,8.50
2022-11-10T00:20:41.681Z,8.50
2022-11-10T00:23:47.610Z,8.50
2022-11-10T00:26:50.934Z,8.50
2022-11-10T00:29:54.069Z,8.50
2022-11-10T00:32:57.585Z,8.50
2022-11-10T00:36:01.695Z,8.50
2022-11-10T00:39:06.351Z,8.50
2022-11-10T00:42:09.519Z,8.40
2022-11-10T00:45:13.208Z,8.40
2022-11-10T00:48:16.295Z,8.30
2022-11-10T00:51:23.625Z,8.30
2022-11-10T00:54:28.089Z,8.40
2022-11-10T00:57:31.219Z,8.40
2022-11-10T01:00:34.431Z,8.40
2022-11-10T01:03:37.895Z,8.40
2022-11-10T01:06:41.046Z,8.40
2022-11-10T01:09:45.536Z,8.50
2022-11-10T01:12:48.624Z,8.50
2022-11-10T01:15:51.740Z,8.50
2022-11-10T01:18:56.673Z,8.50
2022-11-10T01:22:01.161Z,8.50
2022-11-10T01:25:06.401Z,8.50
2022-11-10T01:28:09.482Z,8.40
2022-11-10T01:31:14.564Z,8.40
2022-11-10T01:34:17.666Z,8.40
2022-11-10T01:37:20.763Z,8.50
2022-11-10T01:40:25.313Z,8.50
2022-11-10T01:43:29.385Z,8.50
2022-11-10T01:46:32.470Z,8.50
2022-11-10T01:49:36.278Z,8.50
2022-11-10T01:52:39.665Z,8.40
2022-11-10T01:55:46.453Z,8.40
2022-11-10T01:58:54.976Z,8.30
2022-11-10T02:02:03.171Z,8.40
2022-11-10T02:05:07.225Z,8.40
2022-11-10T02:08:10.571Z,8.40
2022-11-10T02:11:15.328Z,8.40
2022-11-10T02:14:18.538Z,8.40
2022-11-10T02:17:21.635Z,8.40
2022-11-10T02:20:24.952Z,8.30
2022-11-10T02:23:50.059Z,8.30
2022-11-10T02:26:56.606Z,8.30
2022-11-10T02:30:00.596Z,8.30
2022-11-10T02:33:04.606Z,8.20
2022-11-10T02:36:08.086Z,8.20
2022-11-10T02:39:12.548Z,8.20
2022-11-10T02:42:15.623Z,8.10
2022-11-10T02:45:18.898Z,8.20
2022-11-10T02:48:22.007Z,8.20
2022-11-10T02:51:25.127Z,8.30
2022-11-10T02:54:29.566Z,8.30
2022-11-10T02:57:32.660Z,8.30
2022-11-10T03:00:35.766Z,8.30
2022-11-10T03:03:38.850Z,8.20
2022-11-10T03:06:41.938Z,8.20
2022-11-10T03:09:46.444Z,8.10
2022-11-10T03:12:49.569Z,8.10
2022-11-10T03:15:53.133Z,7.80
2022-11-10T03:18:56.219Z,7.80
2022-11-10T03:21:59.334Z,7.80
2022-11-10T03:25:03.900Z,7.90
2022-11-10T03:28:06.975Z,7.80
2022-11-10T03:31:10.063Z,7.80
2022-11-10T03:34:13.167Z,7.90
2022-11-10T03:37:16.330Z,7.90
2022-11-10T03:40:21.015Z,7.90
2022-11-10T03:43:24.439Z,7.90
2022-11-10T03:46:27.755Z,7.90
2022-11-10T03:49:30.969Z,8.00
2022-11-10T03:52:34.106Z,8.00
2022-11-10T03:55:38.590Z,8.00
2022-11-10T03:58:42.392Z,8.00
2022-11-10T04:01:45.550Z,7.90
2022-11-10T04:05:06.167Z,8.00
2022-11-10T04:08:28.458Z,8.00
2022-11-10T04:11:50.525Z,8.00
2022-11-10T04:15:10.808Z,8.00
2022-11-10T04:18:29.716Z,8.00
2022-11-10T04:21:33.041Z,8.00
2022-11-10T04:24:36.120Z,8.00
2022-11-10T04:27:41.582Z,8.00
2022-11-10T04:30:45.804Z,8.00
2022-11-10T04:33:49.686Z,8.00
2022-11-10T04:36:52.782Z,8.00
2022-11-10T04:39:55.880Z,8.10
2022-11-10T04:43:00.343Z,8.10
2022-11-10T04:46:03.927Z,8.10
2022-11-10T04:49:08.436Z,8.10
2022-11-10T04:52:11.551Z,8.10
2022-11-10T04:55:14.743Z,8.10
2022-11-10T04:58:19.202Z,8.20
2022-11-10T05:01:23.975Z,8.20
2022-11-10T05:04:27.282Z,8.20
2022-11-10T05:07:30.394Z,8.20
2022-11-10T05:10:33.499Z,8.20
2022-11-10T05:13:38.080Z,8.10
2022-11-10T05:16:41.195Z,8.00
2022-11-10T05:19:44.314Z,8.00
2022-11-10T05:23:08.087Z,8.10
2022-11-10T05:26:13.108Z,8.10
2022-11-10T05:29:17.815Z,8.10
2022-11-10T05:32:20.940Z,8.10
2022-11-10T05:35:24.640Z,8.10
2022-11-10T05:38:27.798Z,8.10
2022-11-10T05:41:30.882Z,8.10
2022-11-10T05:44:35.353Z,8.20
2022-11-10T05:47:38.464Z,8.20
2022-11-10T05:50:41.532Z,8.10
2022-11-10T05:53:44.629Z,8.20
2022-11-10T05:56:47.727Z,8.20
2022-11-10T05:59:52.200Z,8.20
2022-11-10T06:02:59.740Z,8.20
2022-11-10T06:06:02.821Z,8.20
2022-11-10T06:09:06.083Z,8.20
2022-11-10T06:12:09.523Z,8.20
2022-11-10T06:15:15.788Z,8.10
2022-11-10T06:18:19.097Z,8.10
2022-11-10T06:21:22.177Z,8.10
2022-11-10T06:24:25.449Z,8.00
2022-11-10T06:27:28.592Z,8.10
2022-11-10T06:30:35.164Z,8.10
2022-11-10T06:33:38.314Z,8.10
2022-11-10T06:36:41.482Z,8.20
2022-11-10T06:39:44.583Z,8.20
2022-11-10T06:42:47.677Z,8.40
2022-11-10T06:45:52.166Z,8.50
2022-11-10T06:48:55.324Z,8.70
2022-11-10T06:51:58.475Z,8.90
2022-11-10T06:55:01.594Z,9.00
2022-11-10T06:58:04.839Z,9.10
2022-11-10T07:01:09.344Z,9.10
2022-11-10T07:04:19.643Z,9.10
2022-11-10T07:07:23.702Z,9.00
2022-11-10T07:10:26.838Z,9.00
2022-11-10T07:13:29.951Z,8.90
2022-11-10T07:16:34.464Z,9.00
2022-11-10T07:19:37.571Z,9.00
2022-11-10T07:22:40.647Z,8.90
2022-11-10T07:25:43.781Z,8.90
2022-11-10T07:28:46.857Z,9.00
2022-11-10T07:31:51.339Z,9.00
2022-11-10T07:34:54.446Z,9.00
2022-11-10T07:37:58.128Z,9.00
2022-11-10T07:41:01.243Z,9.10
2022-11-10T07:44:04.564Z,9.10
2022-11-10T07:47:09.130Z,9.20
2022-11-10T07:50:12.348Z,9.20
2022-11-10T07:53:17.098Z,9.30
2022-11-10T07:56:20.218Z,9.40
2022-11-10T07:59:23.303Z,9.40
2022-11-10T08:02:27.861Z,9.50
2022-11-10T08:05:31.072Z,9.60
2022-11-10T08:08:34.261Z,9.60
2022-11-10T08:11:37.413Z,9.60
2022-11-10T08:14:40.884Z,9.60
2022-11-10T08:17:45.433Z,9.70
2022-11-10T08:20:48.734Z,9.80
2022-11-10T08:23:51.847Z,9.80
2022-11-10T08:26:55.023Z,9.80
2022-11-10T08:29:58.151Z,9.90
2022-11-10T08:33:04.973Z,9.90
2022-11-10T08:36:08.815Z,9.90
2022-11-10T08:39:13.245Z,10.00
2022-11-10T08:42:20.805Z,10.00
2022-11-10T08:45:23.875Z,10.00
2022-11-10T08:48:28.603Z,10.00
2022-11-10T08:51:37.779Z,9.90
2022-11-10T08:54:42.053Z,9.80
2022-11-10T08:57:45.131Z,9.70
2022-11-10T09:00:48.474Z,9.60
2022-11-10T09:03:52.989Z,9.70
2022-11-10T09:06:57.938Z,9.80
2022-11-10T09:10:07.337Z,9.70
2022-11-10T09:13:13.101Z,9.70
2022-11-10T09:16:16.742Z,9.60
2022-11-10T09:19:21.435Z,9.70
2022-11-10T09:22:24.599Z,9.80
2022-11-10T09:25:27.702Z,9.80
2022-11-10T09:28:30.806Z,9.90
2022-11-10T09:31:33.895Z,10.00
2022-11-10T09:34:38.449Z,10.00
2022-11-10T09:37:41.897Z,10.10
2022-11-10T09:40:57.086Z,10.20
2022-11-10T09:44:05.058Z,10.20
2022-11-10T09:47:42.260Z,10.30
2022-11-10T09:50:45.501Z,10.20
2022-11-10T09:53:52.806Z,10.30
2022-11-10T09:57:01.343Z,10.30
2022-11-10T10:00:05.725Z,10.30
2022-11-10T10:03:16.217Z,10.30
2022-11-10T10:06:22.227Z,10.40
2022-11-10T10:09:36.573Z,10.40
2022-11-10T10:12:56.096Z,10.50
2022-11-10T10:16:13.022Z,10.60
2022-11-10T10:19:27.694Z,10.60
2022-11-10T10:22:54.015Z,10.60
2022-11-10T10:25:57.982Z,10.60
2022-11-10T10:29:14.825Z,10.70
2022-11-10T10:32:18.966Z,10.70
2022-11-10T10:35:22.159Z,10.80
2022-11-10T10:38:33.280Z,10.90
2022-11-10T10:41:38.397Z,10.90
2022-11-10T10:44:41.536Z,11.00
2022-11-10T10:47:45.964Z,11.00
2022-11-10T10:50:50.485Z,11.00
2022-11-10T10:53:54.996Z,11.10
2022-11-10T10:57:07.209Z,11.20
2022-11-10T11:00:21.086Z,11.20
2022-11-10T11:03:41.991Z,11.30
2022-11-10T11:06:58.226Z,11.40
2022-11-10T11:10:02.907Z,11.40
2022-11-10T11:13:17.353Z,11.40
2022-11-10T11:16:20.763Z,11.40
2022-11-10T11:19:26.467Z,11.50
2022-11-10T11:25:50.070Z,11.50
2022-11-10T11:29:04.439Z,11.40
2022-11-10T11:32:24.123Z,11.50
2022-11-10T11:35:35.219Z,11.50
2022-11-10T11:38:53.094Z,11.50
2022-11-10T11:42:09.267Z,11.50
2022-11-10T11:45:20.077Z,11.40
2022-11-10T11:48:44.489Z,11.40
2022-11-10T11:51:56.126Z,11.40
2022-11-10T11:55:19.463Z,11.40
2022-11-10T11:58:37.517Z,11.40
2022-11-10T12:01:52.674Z,11.50
2022-11-10T12:05:09.892Z,11.50
2022-11-10T12:08:22.578Z,11.50
2022-11-10T12:11:36.378Z,11.50
2022-11-10T12:14:50.306Z,11.40
2022-11-10T12:18:01.693Z,11.10
2022-11-10T12:21:24.273Z,11.10
2022-11-10T12:24:50.980Z,10.80
2022-11-10T12:27:58.295Z,10.90
2022-11-10T12:31:06.814Z,10.80
2022-11-10T12:34:16.956Z,10.90
2022-11-10T12:37:27.975Z,10.90
2022-11-10T12:40:40.446Z,11.00
2022-11-10T12:44:03.730Z,11.00
2022-11-10T12:47:16.408Z,11.10
2022-11-10T12:50:32.880Z,11.10
2022-11-10T12:53:40.103Z,11.10
2022-11-10T12:56:48.121Z,11.10
2022-11-10T12:59:56.707Z,11.20
2022-11-10T13:03:01.546Z,11.10
2022-11-10T13:06:07.204Z,11.10
2022-11-10T13:09:27.220Z,11.10
2022-11-10T13:12:30.466Z,11.20
2022-11-10T13:15:48.488Z,11.20
2022-11-10T13:18:55.710Z,11.30
2022-11-10T13:22:09.992Z,11.30
2022-11-10T13:26:00.868Z,11.20
2022-11-10T13:29:20.765Z,11.20
2022-11-10T13:32:32.328Z,11.30
2022-11-10T13:35:57.144Z,11.30
2022-11-10T13:39:24.588Z,11.30
2022-11-10T13:42:28.235Z,11.30
2022-11-10T13:45:33.954Z,11.40
2022-11-10T13:49:15.167Z,11.50
2022-11-10T13:52:25.249Z,11.70
2022-11-10T13:55:38.571Z,11.90
2022-11-10T13:58:45.098Z,11.90
2022-11-10T14:01:48.513Z,12.00
2022-11-10T14:04:51.646Z,12.10
2022-11-10T14:08:03.223Z,12.10
2022-11-10T14:11:13.751Z,12.20
2022-11-10T14:14:22.877Z,12.20
2022-11-10T14:17:29.488Z,12.20
2022-11-10T14:20:41.839Z,12.20
2022-11-10T14:23:49.799Z,12.20
2022-11-10T14:26:55.577Z,12.20
2022-11-10T14:30:21.487Z,12.20
2022-11-10T14:33:26.038Z,12.10
2022-11-10T14:36:29.168Z,12.00
2022-11-10T14:39:35.590Z,12.00
2022-11-10T14:42:40.525Z,12.00
2022-11-10T14:45:51.915Z,12.10
2022-11-10T14:48:59.705Z,12.20
2022-11-10T14:52:02.842Z,12.20
2022-11-10T14:55:11.694Z,12.20
2022-11-10T14:58:23.005Z,12.20
2022-11-10T15:01:29.167Z,12.20
2022-11-10T15:04:34.093Z,12.10
2022-11-10T15:07:37.476Z,12.10
2022-11-10T15:10:48.002Z,12.00
2022-11-10T15:13:51.183Z,11.90
2022-11-10T15:17:02.039Z,11.60
2022-11-10T15:20:06.435Z,11.50
2022-11-10T15:23:23.245Z,11.40
2022-11-10T15:26:29.826Z,11.30
2022-11-10T15:29:34.660Z,11.20
2022-11-10T15:32:43.351Z,11.10
2022-11-10T15:35:46.495Z,10.90
2022-11-10T15:39:03.370Z,10.90
2022-11-10T15:42:15.925Z,10.80
2022-11-10T15:45:19.017Z,10.80
2022-11-10T15:48:23.419Z,10.70
2022-11-10T15:51:26.728Z,10.60
2022-11-10T15:54:33.505Z,10.60
2022-11-10T15:57:37.997Z,10.50
2022-11-10T16:00:41.171Z,10.50
2022-11-10T16:03:44.831Z,10.40
2022-11-10T16:06:48.256Z,10.40
2022-11-10T16:09:51.402Z,10.40
2022-11-10T16:12:56.463Z,10.30
2022-11-10T16:16:00.566Z,10.30
2022-11-10T16:19:03.675Z,10.20
2022-11-10T16:22:06.824Z,10.20
2022-11-10T16:25:20.516Z,10.20
2022-11-10T16:28:29.144Z,10.10
2022-11-10T16:31:35.060Z,10.10
2022-11-10T16:34:38.325Z,10.00
2022-11-10T16:37:43.425Z,10.00
2022-11-10T16:40:49.828Z,9.90
2022-11-10T16:43:54.336Z,9.90
2022-11-10T16:46:58.324Z,9.80
2022-11-10T16:50:01.490Z,9.80
2022-11-10T16:53:06.629Z,9.80
2022-11-10T16:56:15.065Z,9.70
2022-11-10T16:59:19.574Z,9.60
2022-11-10T17:02:30.274Z,9.60
2022-11-10T17:05:34.871Z,9.60
2022-11-10T17:08:38.193Z,9.50
2022-11-10T17:11:41.372Z,9.40
2022-11-10T17:14:45.920Z,9.30
2022-11-10T17:17:52.382Z,9.30
2022-11-10T17:20:56.021Z,9.30
2022-11-10T17:24:00.043Z,9.30
2022-11-10T17:27:03.602Z,9.30
2022-11-10T17:30:12.741Z,9.30
2022-11-10T17:33:16.102Z,9.20
2022-11-10T17:36:21.422Z,9.20
2022-11-10T17:39:26.893Z,9.10
2022-11-10T17:42:30.335Z,8.90
2022-11-10T17:45:35.787Z,8.90
2022-11-10T17:48:39.196Z,8.80
2022-11-10T17:51:44.581Z,8.80
2022-11-10T17:54:48.319Z,8.80
2022-11-10T17:57:52.635Z,8.80
2022-11-10T18:00:57.636Z,8.80
2022-11-10T18:04:00.998Z,8.80
2022-11-10T18:07:04.341Z,8.80
2022-11-10T18:10:09.754Z,8.80
2022-11-10T18:13:13.762Z,8.80
2022-11-10T18:16:19.804Z,8.80
2022-11-10T18:19:23.986Z,8.70
2022-11-10T18:22:28.374Z,8.60
2022-11-10T18:25:32.153Z,8.60
2022-11-10T18:28:36.542Z,8.60
2022-11-10T18:31:43.112Z,8.60
2022-11-10T18:34:47.689Z,8.60
2022-11-10T18:37:51.376Z,8.50
2022-11-10T18:40:55.903Z,8.50
2022-11-10T18:44:01.424Z,8.50
2022-11-10T18:47:09.390Z,8.40
2022-11-10T18:50:13.459Z,8.30
2022-11-10T18:53:20.099Z,8.30
2022-11-10T18:56:24.837Z,8.30
2022-11-10T18:59:31.579Z,8.20
2022-11-10T19:02:46.396Z,8.10
2022-11-10T19:05:58.203Z,8.10
2022-11-10T19:09:02.913Z,8.10
2022-11-10T19:12:07.792Z,8.10
2022-11-10T19:15:12.823Z,8.10
2022-11-10T19:18:18.692Z,8.10
2022-11-10T19:21:27.152Z,8.10
2022-11-10T19:24:47.697Z,8.10
2022-11-10T19:27:55.110Z,8.00
2022-11-10T19:31:02.950Z,8.00
2022-11-10T19:34:08.196Z,8.00
2022-11-10T19:37:13.365Z,8.00
2022-11-10T19:40:17.547Z,8.00
2022-11-10T19:43:22.479Z,7.90
2022-11-10T19:46:28.396Z,7.90
2022-11-10T19:49:38.661Z,7.90
2022-11-10T19:52:43.499Z,7.90
2022-11-10T19:55:48.266Z,7.90
2022-11-10T19:58:54.211Z,7.80
2022-11-10T20:02:01.601Z,7.90
2022-11-10T20:05:16.507Z,7.90
2022-11-10T20:08:20.360Z,7.80
2022-11-10T20:11:27.467Z,7.80
2022-11-10T20:14:31.509Z,7.80
2022-11-10T20:17:35.496Z,7.80
2022-11-10T20:20:42.697Z,7.70
2022-11-10T20:23:48.222Z,7.70
2022-11-10T20:26:52.049Z,7.60
2022-11-10T20:29:57.925Z,7.50
2022-11-10T20:33:03.132Z,7.40
2022-11-10T20:36:17.372Z,7.40
2022-11-10T20:39:24.349Z,7.30
2022-11-10T20:42:28.463Z,7.30
2022-11-10T20:45:33.287Z,7.40
2022-11-10T20:48:37.968Z,7.40
2022-11-10T20:51:45.505Z,7.30
2022-11-10T20:54:50.141Z,7.30
2022-11-10T20:57:55.070Z,7.30
2022-11-10T21:01:03.359Z,7.30
2022-11-10T21:04:07.689Z,7.30
2022-11-10T21:07:13.873Z,7.30
2022-11-10T21:10:17.449Z,7.30
2022-11-10T21:13:21.613Z,7.20
2022-11-10T21:16:25.371Z,7.10
2022-11-10T21:19:28.619Z,6.80
2022-11-10T21:22:33.070Z,6.70
2022-11-10T21:25:36.317Z,6.70
2022-11-10T21:28:39.418Z,6.70
2022-11-10T21:31:42.676Z,6.50
2022-11-10T21:34:47.362Z,6.60
2022-11-10T21:37:51.967Z,6.60
2022-11-10T21:40:55.283Z,6.70
2022-11-10T21:43:58.688Z,6.70
2022-11-10T21:47:01.900Z,6.70
2022-11-10T21:50:05.765Z,6.60
2022-11-10T21:53:10.384Z,6.70
2022-11-10T21:56:14.345Z,6.70
2022-11-10T21:59:19.175Z,6.70
2022-11-10T22:02:22.513Z,6.70
2022-11-10T22:05:25.992Z,6.70
2022-11-10T22:08:30.619Z,6.50
2022-11-10T22:11:51.083Z,6.50
2022-11-10T22:15:11.707Z,6.50
2022-11-10T22:18:33.675Z,6.50
2022-11-10T22:21:36.832Z,6.50
2022-11-10T22:24:41.446Z,6.50
2022-11-10T22:27:44.737Z,6.60
2022-11-10T22:30:47.919Z,6.60
2022-11-10T22:33:51.118Z,6.60
2022-11-10T22:36:55.848Z,6.60
2022-11-10T22:40:18.119Z,6.60
2022-11-10T22:43:38.534Z,6.60
2022-11-10T22:46:43.334Z,6.60
2022-11-10T22:49:46.501Z,6.60
2022-11-10T22:52:49.693Z,6.60
2022-11-10T22:55:54.323Z,6.60
2022-11-10T22:59:00.036Z,6.50
2022-11-10T23:02:03.697Z,6.50
2022-11-10T23:05:07.613Z,6.50
2022-11-10T23:08:10.780Z,6.40
2022-11-10T23:11:17.289Z,6.50
2022-11-10T23:14:20.464Z,6.50
2022-11-10T23:17:23.648Z,6.50
2022-11-10T23:20:26.842Z,6.40
2022-11-10T23:23:33.070Z,6.40
2022-11-10T23:26:37.641Z,6.40
2022-11-10T23:29:40.787Z,6.40
2022-11-10T23:32:43.982Z,6.40
2022-11-10T23:35:47.173Z,6.40
2022-11-10T23:38:50.355Z,6.40
2022-11-10T23:41:54.914Z,6.30
2022-11-10T23:44:58.105Z,6.30
2022-11-10T23:48:06.584Z,6.40
2022-11-10T23:51:13.167Z,6.40
2022-11-10T23:54:16.341Z,6.40
2022-11-10T23:57:20.875Z,6.30
